Weather at Mirandela Airfield

Public forecast

Using degrees Celsius for public forecast. Weather courtesy of forecast.io.

Closest aviation weather report (METAR) to Mirandela Airfield

Report is more than 6 hours old.

Closest report is Francisco de Sá Carneiro Airport, 66.9 nm (123.9 km) W. Retrieved 2022/09/17 19:00 UTC (13 days ago):

LPPR 171900Z 35006KT CAVOK 23/19 Q1010

Closest aviation forecast (TAF) to Mirandela Airfield

Forecast is more than 12 hours old.

Closest forecast is Francisco de Sá Carneiro Airport, 66.9 nm (123.9 km) W. Retrieved 2022/09/17 18:18 UTC (13 days ago):

TAF LPPR 171700Z 1718/1818 31005KT CAVOK BECMG 1718/1720 VRB02KT BECMG 1800/1802 08007KT BECMG 1813/1815 31007KT 9999 FEW030